Time;durP1;ratioP1;P1;durP2;ratioP2;P2;SDS_P1;SDS_P2;PMS_P1;PMS_P2;Temp;Humidity;BMP_temperature;BMP_pressure;BME280_temperature;BME280_humidity;BME280_pressure;Samples;Min_cycle;Max_cycle;Signal;HPM_P1;HPM_P2
2021/12/31 00:01:33;;;;;;;10.07;3.60;;;;;;;13.45;100.00;101668.06;5011837;28;20050;-49
2021/12/31 00:04:00;;;;;;;8.68;3.30;;;;;;;13.46;100.00;101665.03;5013543;28;20072;-47
2021/12/31 00:06:28;;;;;;;10.40;3.00;;;;;;;13.46;100.00;101673.25;5012296;28;20403;-53
2021/12/31 00:08:55;;;;;;;9.10;3.15;;;;;;;13.45;100.00;101671.59;5008745;28;20046;-49
2021/12/31 00:11:23;;;;;;;8.45;3.20;;;;;;;13.46;100.00;101681.47;5000019;28;20404;-50
2021/12/31 00:13:51;;;;;;;8.07;3.20;;;;;;;13.48;100.00;101673.81;5013367;28;20038;-51
2021/12/31 00:16:18;;;;;;;11.55;3.08;;;;;;;13.46;100.00;101670.50;5011763;28;20050;-48
2021/12/31 00:18:46;;;;;;;10.55;2.88;;;;;;;13.46;100.00;101670.50;5013151;28;20412;-50
2021/12/31 00:21:13;;;;;;;7.85;3.10;;;;;;;13.48;100.00;101672.97;5010914;28;20054;-49
2021/12/31 00:23:43;;;;;;;9.45;3.15;;;;;;;13.47;100.00;101674.91;5011638;28;20048;-47
2021/12/31 00:26:10;;;;;;;8.20;2.90;;;;;;;13.46;100.00;101681.47;5013440;28;20038;-45
2021/12/31 00:28:38;;;;;;;8.75;2.95;;;;;;;13.48;100.00;101671.06;5013259;28;20461;-48
2021/12/31 00:31:06;;;;;;;8.45;3.03;;;;;;;13.47;100.00;101685.84;5011996;28;20373;-47
2021/12/31 00:33:33;;;;;;;7.75;3.08;;;;;;;13.46;100.00;101684.19;5011369;28;20404;-47
2021/12/31 00:36:01;;;;;;;10.07;2.85;;;;;;;13.48;100.00;101682.00;5012909;28;20126;-48
2021/12/31 00:38:28;;;;;;;7.45;3.08;;;;;;;13.48;100.00;101679.28;5012038;28;20041;-49
2021/12/31 00:40:56;;;;;;;11.35;2.90;;;;;;;13.47;100.00;101682.28;4993427;28;20497;-49
2021/12/31 00:43:23;;;;;;;7.07;3.30;;;;;;;13.50;100.00;101682.56;4998740;28;20045;-47
2021/12/31 00:45:51;;;;;;;10.23;3.05;;;;;;;13.48;100.00;101676.53;5012917;28;20050;-47
2021/12/31 00:48:19;;;;;;;8.05;2.88;;;;;;;13.50;100.00;101679.84;5012573;28;20045;-48
2021/12/31 00:50:46;;;;;;;9.15;3.00;;;;;;;13.49;100.00;101680.91;5011418;28;20053;-48
2021/12/31 00:53:14;;;;;;;5.35;2.50;;;;;;;13.50;100.00;101689.97;5011306;28;20412;-47
2021/12/31 00:55:41;;;;;;;7.28;2.50;;;;;;;13.46;100.00;101695.16;5012447;28;20493;-49
2021/12/31 00:58:09;;;;;;;5.70;2.55;;;;;;;13.45;100.00;101682.56;5013076;28;20386;-49
2021/12/31 01:00:37;;;;;;;8.35;2.85;;;;;;;13.46;100.00;101686.13;5011201;28;20042;-48
2021/12/31 01:03:05;;;;;;;5.03;2.85;;;;;;;13.49;100.00;101674.63;5011058;28;20038;-50
2021/12/31 01:05:33;;;;;;;6.65;2.53;;;;;;;13.47;100.00;101683.13;5011789;28;20037;-50
2021/12/31 01:08:00;;;;;;;8.43;2.78;;;;;;;13.47;100.00;101679.53;5012980;28;20046;-49
2021/12/31 01:10:30;;;;;;;8.43;2.70;;;;;;;13.48;100.00;101687.50;4992180;28;20038;-48
2021/12/31 01:12:58;;;;;;;7.20;2.63;;;;;;;13.45;100.00;101688.03;5008793;28;20046;-48
2021/12/31 01:15:40;;;;;;;7.43;2.70;;;;;;;13.45;100.00;101696.25;4992894;28;20054;-49
2021/12/31 01:20:39;;;;;;;10.15;3.30;;;;;;;13.48;100.00;101687.50;5012889;28;20100;-48
2021/12/31 01:23:08;;;;;;;7.82;2.53;;;;;;;13.47;100.00;101688.59;5012827;28;20049;-48
2021/12/31 01:25:36;;;;;;;5.95;2.70;;;;;;;13.47;100.00;101677.66;4994725;28;20054;-48
2021/12/31 01:28:05;;;;;;;7.63;3.00;;;;;;;13.45;100.00;101679.81;4992865;28;20466;-47
2021/12/31 01:30:32;;;;;;;7.30;2.58;;;;;;;13.43;100.00;101682.81;4993086;28;20046;-49
2021/12/31 01:33:00;;;;;;;7.38;2.55;;;;;;;13.43;100.00;101685.56;4992795;28;20042;-48
2021/12/31 01:35:27;;;;;;;9.82;3.42;;;;;;;13.45;100.00;101688.03;4993872;28;20047;-47
2021/12/31 01:37:55;;;;;;;9.38;2.88;;;;;;;13.45;100.00;101679.00;4993302;28;20049;-51
2021/12/31 01:40:23;;;;;;;8.63;3.22;;;;;;;13.45;100.00;101679.81;5011175;28;20344;-54
2021/12/31 01:42:52;;;;;;;4.68;2.50;;;;;;;13.44;100.00;101683.63;4997074;28;20466;-51
2021/12/31 01:45:21;;;;;;;5.18;2.60;;;;;;;13.43;100.00;101688.28;4993228;28;20115;-46
2021/12/31 01:50:28;;;;;;;6.03;2.40;;;;;;;13.43;100.00;101701.16;4992960;28;20050;-48
2021/12/31 01:52:56;;;;;;;7.18;2.60;;;;;;;13.42;100.00;101696.75;4994165;28;20065;-50
2021/12/31 01:55:26;;;;;;;7.88;2.70;;;;;;;13.42;100.00;101702.22;4992515;28;20045;-48
2021/12/31 01:57:54;;;;;;;6.57;2.28;;;;;;;13.40;100.00;101704.44;4997623;28;20042;-46
2021/12/31 02:00:23;;;;;;;6.00;2.60;;;;;;;13.42;100.00;101705.81;5012294;28;20038;-48
2021/12/31 02:02:51;;;;;;;3.95;2.30;;;;;;;13.41;100.00;101715.09;5012494;28;20064;-49
2021/12/31 02:05:21;;;;;;;8.82;2.70;;;;;;;13.42;100.00;101711.28;4995120;28;20413;-49
2021/12/31 02:07:49;;;;;;;6.18;2.47;;;;;;;13.43;100.00;101714.84;4996159;28;20039;-50
2021/12/31 02:10:17;;;;;;;5.50;2.33;;;;;;;13.43;100.00;101714.84;4996407;28;20046;-49
2021/12/31 02:12:46;;;;;;;8.02;2.95;;;;;;;13.43;100.00;101717.59;4996200;28;20412;-50
2021/12/31 02:15:18;;;;;;;8.30;2.60;;;;;;;13.42;100.00;101713.19;5013269;28;20065;-50
2021/12/31 02:17:48;;;;;;;4.60;2.00;;;;;;;13.41;100.00;101714.28;5011512;28;20137;-54
2021/12/31 02:20:20;;;;;;;5.05;2.10;;;;;;;13.39;100.00;101709.06;4996416;28;20074;-50
2021/12/31 02:23:04;;;;;;;6.82;2.60;;;;;;;13.39;100.00;101706.31;4995928;28;20501;-46
2021/12/31 02:25:33;;;;;;;4.47;2.35;;;;;;;13.40;100.00;101704.44;4996787;28;20047;-49
2021/12/31 02:28:00;;;;;;;5.85;2.42;;;;;;;13.40;100.00;101704.44;4996261;28;20042;-49
2021/12/31 02:30:29;;;;;;;4.60;2.28;;;;;;;13.39;100.00;101700.03;4996796;28;20477;-51
2021/12/31 02:32:57;;;;;;;6.38;2.70;;;;;;;13.39;100.00;101698.13;4995837;28;20049;-49
2021/12/31 02:35:25;;;;;;;9.65;3.00;;;;;;;13.38;100.00;101696.47;4997047;28;20057;-49
2021/12/31 02:37:52;;;;;;;7.47;2.60;;;;;;;13.40;100.00;101698.97;4995854;28;20042;-50
2021/12/31 02:40:21;;;;;;;9.18;2.60;;;;;;;13.42;100.00;101699.50;4994732;28;20054;-46
2021/12/31 02:42:49;;;;;;;6.97;2.45;;;;;;;13.43;100.00;101695.69;4994274;28;20050;-51
2021/12/31 02:45:21;;;;;;;5.88;2.13;;;;;;;13.42;100.00;101696.75;4995686;28;20125;-49
2021/12/31 02:47:49;;;;;;;7.85;2.53;;;;;;;13.42;100.00;101694.03;4995259;28;20428;-49
2021/12/31 02:50:18;;;;;;;8.75;2.83;;;;;;;13.41;100.00;101697.84;4995715;28;20042;-46
2021/12/31 02:52:46;;;;;;;8.20;2.47;;;;;;;13.41;100.00;101693.19;4995559;28;20075;-46
2021/12/31 02:55:14;;;;;;;5.82;2.25;;;;;;;13.41;100.00;101692.38;4996264;28;20054;-45
2021/12/31 02:57:42;;;;;;;6.57;2.40;;;;;;;13.39;100.00;101695.38;4994145;28;20054;-46
2021/12/31 03:00:10;;;;;;;6.15;2.40;;;;;;;13.38;100.00;101687.44;4994116;28;20069;-46
2021/12/31 03:02:38;;;;;;;6.03;2.40;;;;;;;13.39;100.00;101670.75;4993646;28;20100;-46
2021/12/31 03:05:08;;;;;;;7.05;2.25;;;;;;;13.39;100.00;101686.34;5008070;28;20038;-46
2021/12/31 03:07:37;;;;;;;5.82;2.40;;;;;;;13.40;100.00;101679.81;5015027;28;20053;-46
2021/12/31 03:10:06;;;;;;;7.20;2.70;;;;;;;13.39;100.00;101683.59;5014283;28;20453;-45
2021/12/31 03:12:34;;;;;;;4.97;2.13;;;;;;;13.39;100.00;101678.13;5014758;28;20049;-48
2021/12/31 03:15:02;;;;;;;6.35;2.40;;;;;;;13.40;100.00;101674.31;5012873;28;20530;-46
2021/12/31 03:17:29;;;;;;;5.60;2.33;;;;;;;13.40;100.00;101682.53;5012988;28;20504;-45
2021/12/31 03:20:09;;;;;;;6.05;2.30;;;;;;;13.38;100.00;101668.28;5014455;28;20034;-50
2021/12/31 03:22:37;;;;;;;5.80;2.42;;;;;;;13.40;100.00;101675.13;5014851;28;20124;-44
2021/12/31 03:25:06;;;;;;;5.68;2.60;;;;;;;13.38;100.00;101668.28;5012599;28;20451;-47
2021/12/31 03:27:34;;;;;;;7.35;2.67;;;;;;;13.38;100.00;101668.28;5014628;28;20046;-51
2021/12/31 03:30:03;;;;;;;6.15;2.38;;;;;;;13.38;100.00;101682.78;5014592;28;20049;-50
2021/12/31 03:32:31;;;;;;;7.82;2.65;;;;;;;13.39;100.00;101669.91;4999918;28;20045;-50
2021/12/31 03:34:58;;;;;;;6.68;2.55;;;;;;;13.39;100.00;101670.75;4995844;28;20050;-47
2021/12/31 03:37:26;;;;;;;5.38;2.08;;;;;;;13.42;100.00;101663.91;4994699;28;20049;-49
2021/12/31 03:39:53;;;;;;;4.72;2.20;;;;;;;13.38;100.00;101673.75;4993412;28;20034;-47
2021/12/31 03:42:21;;;;;;;5.13;2.38;;;;;;;13.36;100.00;101670.47;4994699;28;20046;-48
2021/12/31 03:44:49;;;;;;;7.00;2.45;;;;;;;13.37;100.00;101683.03;4995721;28;20048;-48
2021/12/31 03:47:17;;;;;;;7.07;2.70;;;;;;;13.36;100.00;101671.28;4994424;28;20551;-51
2021/12/31 03:49:44;;;;;;;7.88;2.58;;;;;;;13.35;100.00;101669.66;4993428;28;20054;-49
2021/12/31 03:52:13;;;;;;;5.63;2.53;;;;;;;13.35;100.00;101668.81;4994621;28;20053;-49
2021/12/31 03:54:41;;;;;;;6.28;2.55;;;;;;;13.36;100.00;101673.19;4994216;28;20054;-50
2021/12/31 03:57:08;;;;;;;7.35;2.60;;;;;;;13.36;100.00;101662.25;4994024;28;20046;-51
2021/12/31 03:59:36;;;;;;;5.65;2.35;;;;;;;13.38;100.00;101657.34;4994379;28;20504;-48
2021/12/31 04:02:04;;;;;;;5.43;2.53;;;;;;;13.46;100.00;101659.56;4994271;28;20050;-51
2021/12/31 04:04:31;;;;;;;8.00;2.70;;;;;;;13.42;100.00;101658.44;4994116;28;20030;-49
2021/12/31 04:06:59;;;;;;;8.40;2.50;;;;;;;13.39;100.00;101650.75;4995295;28;20045;-49
2021/12/31 04:09:27;;;;;;;10.55;3.40;;;;;;;13.37;100.00;101655.66;5009963;28;20122;-49
2021/12/31 04:11:54;;;;;;;10.52;2.80;;;;;;;13.36;100.00;101654.84;5013423;28;20393;-48
2021/12/31 04:14:22;;;;;;;5.88;2.50;;;;;;;13.37;100.00;101655.66;5013607;28;20045;-50
2021/12/31 04:16:50;;;;;;;6.90;2.63;;;;;;;13.35;100.00;101660.63;5008239;28;20043;-50
2021/12/31 04:19:18;;;;;;;5.53;2.35;;;;;;;13.45;100.00;101655.19;4994020;28;20069;-49
2021/12/31 04:21:48;;;;;;;5.88;2.60;;;;;;;13.40;100.00;101655.97;4994045;28;20042;-51
2021/12/31 04:27:03;;;;;;;8.63;2.80;;;;;;;13.41;100.00;101654.06;5007056;28;20041;-49
2021/12/31 04:29:31;;;;;;;6.50;2.65;;;;;;;13.43;100.00;101649.97;5013532;28;20048;-48
2021/12/31 04:32:00;;;;;;;6.15;2.55;;;;;;;13.43;100.00;101643.66;4995073;28;20046;-49
2021/12/31 04:34:28;;;;;;;6.28;2.60;;;;;;;13.45;100.00;101646.97;4993744;28;20073;-50
2021/12/31 04:36:56;;;;;;;8.68;2.72;;;;;;;13.43;100.00;101651.88;4998914;28;20046;-49
2021/12/31 04:39:23;;;;;;;4.68;2.30;;;;;;;13.38;100.00;101640.91;4997649;28;20046;-50
2021/12/31 04:41:51;;;;;;;9.48;2.80;;;;;;;13.43;100.00;101638.19;4993741;28;20070;-50
2021/12/31 04:44:18;;;;;;;9.00;3.20;;;;;;;13.44;100.00;101634.34;4993474;28;20039;-50
2021/12/31 04:46:46;;;;;;;8.13;2.85;;;;;;;13.39;100.00;101626.94;4994746;28;20043;-49
2021/12/31 04:49:14;;;;;;;6.38;2.78;;;;;;;13.36;100.00;101634.88;4993535;28;20057;-50
2021/12/31 04:51:44;;;;;;;4.88;2.17;;;;;;;13.47;100.00;101628.38;4993550;28;20145;-50
2021/12/31 04:54:16;;;;;;;6.28;2.70;;;;;;;13.49;100.00;101634.38;4993415;28;20054;-51
2021/12/31 04:56:44;;;;;;;8.52;2.85;;;;;;;13.56;100.00;101631.41;4994495;28;20035;-48
2021/12/31 04:59:11;;;;;;;8.80;2.85;;;;;;;13.51;99.76;101632.19;4993295;28;20057;-48
2021/12/31 05:01:39;;;;;;;6.18;2.70;;;;;;;13.43;99.55;101649.16;4993422;28;20045;-50
2021/12/31 05:04:07;;;;;;;7.05;2.70;;;;;;;13.39;99.93;101642.53;4993327;28;20048;-50
2021/12/31 05:06:34;;;;;;;8.27;2.90;;;;;;;13.58;99.34;101651.13;4994742;28;20833;-49
2021/12/31 05:09:02;;;;;;;9.25;3.10;;;;;;;13.50;99.26;101635.22;4998004;28;20413;-48
2021/12/31 05:11:30;;;;;;;6.18;2.72;;;;;;;13.44;99.51;101634.34;4993173;28;20536;-51
2021/12/31 05:13:57;;;;;;;9.40;2.97;;;;;;;13.39;99.73;101643.38;4993256;28;20050;-48
2021/12/31 05:16:25;;;;;;;8.82;3.28;;;;;;;13.53;99.21;101643.72;4993093;28;20116;-47
2021/12/31 05:18:52;;;;;;;6.82;2.72;;;;;;;13.49;99.42;101644.50;4993972;28;20042;-45
2021/12/31 05:21:20;;;;;;;8.20;3.30;;;;;;;13.42;98.86;101647.47;4993417;28;20046;-49
2021/12/31 05:23:47;;;;;;;8.70;2.58;;;;;;;13.39;99.13;101634.34;4993221;28;20054;-53
2021/12/31 05:26:15;;;;;;;10.02;3.35;;;;;;;13.63;98.26;101632.78;4993103;28;20043;-50
2021/12/31 05:28:43;;;;;;;8.27;3.13;;;;;;;13.57;98.03;101638.53;5003712;28;20046;-49
2021/12/31 05:31:10;;;;;;;8.77;2.95;;;;;;;13.52;98.41;101630.31;5012574;28;20492;-49
2021/12/31 05:33:38;;;;;;;7.43;2.60;;;;;;;13.57;97.93;101616.63;5012592;28;20077;-47
2021/12/31 05:36:05;;;;;;;5.95;2.40;;;;;;;13.51;98.20;101613.03;5015150;28;20046;-48
2021/12/31 05:38:33;;;;;;;3.22;1.70;;;;;;;13.62;98.23;101602.94;5007385;28;20082;-50
2021/12/31 05:41:01;;;;;;;4.72;2.40;;;;;;;13.52;98.12;101603.75;5016682;28;20499;-49
2021/12/31 05:43:29;;;;;;;6.70;2.85;;;;;;;13.54;97.22;101596.09;5016662;28;20427;-51
2021/12/31 05:45:56;;;;;;;7.97;2.60;;;;;;;13.56;97.71;101595.78;5016588;28;20491;-49
2021/12/31 05:48:24;;;;;;;6.10;2.40;;;;;;;13.52;98.60;101587.31;5015638;28;20053;-49
2021/12/31 05:50:52;;;;;;;8.07;2.65;;;;;;;13.59;98.50;101587.88;5014857;28;20140;-49
2021/12/31 05:53:19;;;;;;;6.45;2.70;;;;;;;13.53;97.11;101582.66;5016606;28;20034;-51
2021/12/31 05:55:47;;;;;;;9.60;2.72;;;;;;;13.51;97.39;101582.91;5016196;28;20045;-52
2021/12/31 05:58:15;;;;;;;7.40;2.88;;;;;;;13.66;97.76;101586.78;5016328;28;20046;-48
2021/12/31 06:00:42;;;;;;;7.47;2.35;;;;;;;13.74;97.00;101591.75;5014596;28;20046;-48
2021/12/31 06:03:10;;;;;;;9.52;3.25;;;;;;;13.46;96.08;101591.09;5015720;28;20045;-52
2021/12/31 06:05:38;;;;;;;11.10;2.53;;;;;;;13.29;96.55;101598.72;5014960;28;20464;-48
2021/12/31 06:08:05;;;;;;;8.45;2.70;;;;;;;13.17;96.99;101607.94;5006582;28;20093;-49
2021/12/31 06:10:33;;;;;;;9.00;2.63;;;;;;;13.10;97.33;101612.81;4997483;28;20489;-47
2021/12/31 06:13:01;;;;;;;5.10;2.40;;;;;;;13.08;97.65;101619.63;5011223;28;20497;-49
2021/12/31 06:15:29;;;;;;;9.07;2.60;;;;;;;13.08;97.54;101609.50;4996378;28;20121;-50
2021/12/31 06:17:57;;;;;;;5.18;2.33;;;;;;;13.11;98.12;101619.13;4995841;28;20053;-49
2021/12/31 06:20:28;;;;;;;5.43;2.30;;;;;;;13.24;97.93;101620.56;4996387;28;20038;-50
2021/12/31 06:22:59;;;;;;;8.30;3.05;;;;;;;13.21;97.04;101619.19;4996015;28;20085;-48
2021/12/31 06:25:28;;;;;;;6.20;2.55;;;;;;;13.14;97.28;101629.53;5010967;28;20046;-50
2021/12/31 06:27:55;;;;;;;8.90;2.83;;;;;;;13.28;97.18;101618.97;4996450;28;20061;-48
2021/12/31 06:30:23;;;;;;;8.10;2.80;;;;;;;13.16;96.93;101624.63;4996186;28;20053;-48
2021/12/31 06:32:50;;;;;;;6.53;2.47;;;;;;;13.09;96.54;101626.78;4997318;28;20054;-52
2021/12/31 06:35:18;;;;;;;9.10;2.83;;;;;;;13.05;97.20;101623.72;4994639;28;20047;-48
2021/12/31 06:37:48;;;;;;;6.88;2.65;;;;;;;13.07;97.79;101623.47;5001774;28;20042;-48
2021/12/31 06:40:20;;;;;;;7.22;2.65;;;;;;;13.08;97.77;101614.16;5015579;28;20038;-50
2021/12/31 06:42:48;;;;;;;7.90;2.50;;;;;;;13.04;97.27;101611.16;5013324;28;20492;-50
2021/12/31 06:45:15;;;;;;;8.02;2.80;;;;;;;12.99;97.56;101622.06;4305649;28;10000720;-53
2021/12/31 06:47:43;;;;;;;5.45;2.13;;;;;;;13.09;98.53;101626.78;4993453;28;20120;-49
2021/12/31 06:50:11;;;;;;;7.88;2.67;;;;;;;13.08;97.42;101634.13;4993974;28;20035;-52
2021/12/31 06:52:39;;;;;;;5.53;2.80;;;;;;;13.04;97.52;101630.31;4994507;28;20059;-54
2021/12/31 06:55:08;;;;;;;5.10;2.60;;;;;;;12.97;97.00;101636.00;4993646;28;20050;-48
2021/12/31 06:57:36;;;;;;;4.25;2.47;;;;;;;12.93;97.30;101634.88;5000675;28;20636;-50
2021/12/31 07:00:05;;;;;;;4.82;1.98;;;;;;;13.02;99.94;101621.53;5011875;28;20060;-53
2021/12/31 07:02:33;;;;;;;6.30;2.53;;;;;;;12.98;97.05;101634.09;5013526;28;20411;-53
2021/12/31 07:05:01;;;;;;;6.18;2.67;;;;;;;12.93;96.98;101639.53;5004306;28;20073;-51
2021/12/31 07:07:28;;;;;;;5.55;2.30;;;;;;;13.01;99.14;101628.06;5013430;28;20041;-50
2021/12/31 07:09:56;;;;;;;7.05;2.60;;;;;;;12.94;97.05;101635.69;5013087;28;20103;-53
2021/12/31 07:12:24;;;;;;;7.07;2.40;;;;;;;12.97;97.90;101635.19;5012855;28;20068;-52
2021/12/31 07:14:51;;;;;;;5.20;2.05;;;;;;;12.95;97.79;101634.63;5011271;28;20060;-52
2021/12/31 07:17:19;;;;;;;7.50;2.70;;;;;;;12.92;97.42;101633.25;5012370;28;20038;-51
2021/12/31 07:19:46;;;;;;;9.30;2.90;;;;;;;12.88;97.22;101637.59;5012579;28;20049;-48
2021/12/31 07:22:14;;;;;;;5.55;2.53;;;;;;;12.90;97.79;101626.38;5011761;28;20046;-50
2021/12/31 07:24:42;;;;;;;10.07;3.47;;;;;;;12.87;97.66;101635.09;5010949;28;20046;-49
2021/12/31 07:27:09;;;;;;;6.55;2.75;;;;;;;12.90;97.69;101629.94;5012635;28;20073;-49
2021/12/31 07:29:37;;;;;;;7.75;2.72;;;;;;;12.80;96.74;101629.88;5013177;28;20062;-49
2021/12/31 07:32:04;;;;;;;5.82;2.70;;;;;;;12.73;97.19;101635.56;5012969;28;20046;-49
2021/12/31 07:34:32;;;;;;;5.40;2.88;;;;;;;12.70;97.06;101644.31;5006513;28;20038;-48
2021/12/31 07:37:00;;;;;;;9.07;2.78;;;;;;;12.74;97.06;101641.84;4995448;28;20051;-52
2021/12/31 07:39:31;;;;;;;6.20;2.60;;;;;;;12.68;96.90;101631.97;4993263;28;20045;-50
2021/12/31 07:41:59;;;;;;;7.28;2.88;;;;;;;12.67;97.28;101638.53;4993460;28;20073;-55
2021/12/31 07:44:33;;;;;;;9.95;2.80;;;;;;;12.63;96.72;101642.84;4993861;28;20104;-54
2021/12/31 07:47:01;;;;;;;9.02;3.22;;;;;;;12.65;97.17;101646.16;5001978;28;20052;-49
2021/12/31 07:49:28;;;;;;;19.80;5.57;;;;;;;12.67;98.13;101647.53;5012529;28;20138;-53
2021/12/31 07:51:56;;;;;;;17.65;4.90;;;;;;;12.75;98.55;101640.78;5012397;28;20046;-51
2021/12/31 07:54:24;;;;;;;11.15;3.42;;;;;;;12.93;98.96;101645.00;5011923;28;20060;-50
2021/12/31 07:56:52;;;;;;;9.05;3.25;;;;;;;12.78;97.52;101648.47;5008733;28;20049;-54
2021/12/31 07:59:19;;;;;;;8.00;2.67;;;;;;;12.70;97.08;101647.03;4991658;28;20039;-51
2021/12/31 08:01:47;;;;;;;9.25;2.80;;;;;;;12.66;96.73;101645.09;4992624;28;20061;-50
2021/12/31 08:04:16;;;;;;;7.82;2.80;;;;;;;12.59;96.92;101642.56;4992941;28;20046;-50
2021/12/31 08:06:43;;;;;;;7.38;2.70;;;;;;;12.55;96.95;101647.75;5012995;28;20038;-50
2021/12/31 08:09:11;;;;;;;10.02;3.40;;;;;;;12.56;97.14;101656.78;4996667;28;20038;-52
2021/12/31 08:11:39;;;;;;;6.30;2.50;;;;;;;12.56;97.22;101662.25;4993989;28;20039;-51
2021/12/31 08:14:07;;;;;;;9.52;3.15;;;;;;;12.56;96.84;101662.25;4992307;28;20093;-48
2021/12/31 08:16:35;;;;;;;7.18;2.72;;;;;;;12.52;96.63;101658.38;4993789;28;20167;-50
2021/12/31 08:19:02;;;;;;;5.07;2.70;;;;;;;12.48;96.85;101649.03;4994841;28;20105;-53
2021/12/31 08:21:30;;;;;;;10.23;3.10;;;;;;;12.49;97.01;101640.59;4994226;28;20049;-50
2021/12/31 08:23:57;;;;;;;7.75;2.97;;;;;;;12.53;96.78;101651.81;4992360;28;20130;-50
2021/12/31 08:26:25;;;;;;;6.90;2.90;;;;;;;12.49;96.56;101647.97;4993814;28;20050;-50
2021/12/31 08:28:55;;;;;;;7.85;3.03;;;;;;;12.48;96.29;101649.03;4994786;28;20051;-48
2021/12/31 08:31:22;;;;;;;6.45;2.80;;;;;;;12.48;96.70;101649.03;4994283;28;20073;-50
2021/12/31 08:33:50;;;;;;;9.30;3.42;;;;;;;12.53;97.05;101651.81;4993581;28;20043;-50
2021/12/31 08:36:18;;;;;;;10.45;3.80;;;;;;;12.56;96.21;101645.84;5009016;28;20056;-51
2021/12/31 08:38:45;;;;;;;5.97;2.60;;;;;;;12.58;95.77;101640.94;5012169;28;20060;-49
2021/12/31 08:41:13;;;;;;;9.02;3.25;;;;;;;12.53;95.86;101651.81;4994991;28;20046;-47
2021/12/31 08:44:01;;;;;;;7.72;2.58;;;;;;;12.61;95.62;101645.88;4993736;28;20054;-51
2021/12/31 08:46:30;;;;;;;5.63;2.38;;;;;;;12.56;94.46;101634.91;4993740;28;20042;-50
2021/12/31 08:48:58;;;;;;;7.90;3.15;;;;;;;12.57;95.45;101642.00;4993033;28;20173;-49
2021/12/31 08:51:26;;;;;;;7.85;2.67;;;;;;;12.52;94.81;101641.97;4994428;28;20057;-51
2021/12/31 08:53:54;;;;;;;9.63;3.60;;;;;;;12.61;95.00;101643.13;4993287;28;20054;-50
2021/12/31 08:56:22;;;;;;;12.85;3.78;;;;;;;12.71;96.15;101640.47;4993310;28;20061;-54
2021/12/31 08:58:49;;;;;;;7.18;2.95;;;;;;;12.74;95.08;101634.47;4993245;28;20046;-49
2021/12/31 09:01:17;;;;;;;16.10;4.88;;;;;;;13.04;99.04;101638.50;4994334;28;20042;-51
2021/12/31 09:03:45;;;;;;;17.42;5.28;;;;;;;13.22;96.58;101616.16;4993340;28;20073;-48
2021/12/31 09:06:13;;;;;;;12.77;5.15;;;;;;;13.23;97.12;101617.00;4993458;28;20066;-49
2021/12/31 09:08:41;;;;;;;15.35;4.70;;;;;;;13.18;97.81;101626.00;4993281;28;20050;-50
2021/12/31 09:11:08;;;;;;;9.52;3.33;;;;;;;13.08;95.53;101619.63;4999283;28;20543;-47
2021/12/31 09:13:36;;;;;;;8.27;3.03;;;;;;;12.92;93.58;101629.69;4998468;28;20070;-48
2021/12/31 09:16:05;;;;;;;6.75;2.60;;;;;;;12.85;96.09;101618.97;5003013;28;20053;-49
2021/12/31 09:18:33;;;;;;;10.55;3.40;;;;;;;12.98;94.78;101631.34;4999927;28;20044;-45
2021/12/31 09:21:00;;;;;;;5.82;2.83;;;;;;;12.92;93.20;101637.91;4999891;28;20043;-50
2021/12/31 09:23:28;;;;;;;10.90;3.28;;;;;;;12.88;94.98;101643.06;5014821;28;20407;-48
2021/12/31 09:25:57;;;;;;;8.25;3.03;;;;;;;12.87;94.05;101646.03;5018874;28;20054;-54
2021/12/31 09:28:25;;;;;;;7.13;2.95;;;;;;;12.85;94.49;101637.31;5019306;28;20049;-49
2021/12/31 09:30:53;;;;;;;9.00;3.40;;;;;;;12.83;93.63;101643.03;5019127;28;20064;-47
2021/12/31 09:33:21;;;;;;;5.85;2.80;;;;;;;12.79;92.43;101639.16;5010226;28;20097;-48
2021/12/31 09:35:48;;;;;;;5.63;2.55;;;;;;;12.74;93.01;101642.69;5012009;28;20108;-48
2021/12/31 09:38:16;;;;;;;16.02;4.82;;;;;;;12.79;95.05;101645.47;5019354;28;20046;-48
2021/12/31 09:40:43;;;;;;;6.50;2.60;;;;;;;12.81;93.51;101647.09;5019432;28;20041;-50
2021/12/31 09:43:12;;;;;;;12.90;4.00;;;;;;;12.86;95.61;101658.91;5017634;28;20037;-52
2021/12/31 09:45:42;;;;;;;8.98;3.20;;;;;;;12.89;94.09;101658.41;5018722;28;20496;-50
2021/12/31 09:48:12;;;;;;;6.68;2.78;;;;;;;12.95;95.24;101670.19;5017414;28;20420;-50
2021/12/31 09:50:46;;;;;;;13.25;4.55;;;;;;;12.92;94.51;101676.19;5018902;28;20519;-50
2021/12/31 09:53:15;;;;;;;5.03;2.47;;;;;;;12.84;92.80;101668.44;5003482;28;20045;-49
2021/12/31 09:55:44;;;;;;;5.75;2.92;;;;;;;12.79;92.81;101675.56;5016138;28;20046;-47
2021/12/31 09:58:14;;;;;;;7.82;3.75;;;;;;;12.75;92.79;101688.09;5017597;28;20045;-49
2021/12/31 10:00:47;;;;;;;9.60;3.13;;;;;;;12.84;92.99;101684.88;5018970;28;20041;-50
2021/12/31 10:03:25;;;;;;;8.77;3.65;;;;;;;13.10;96.06;101691.34;5014311;28;20089;-49
2021/12/31 10:05:53;;;;;;;10.40;3.50;;;;;;;13.08;95.51;101691.59;5001320;28;20050;-50
2021/12/31 10:08:31;;;;;;;6.40;3.10;;;;;;;12.98;93.39;101697.00;5008032;28;20121;-51
2021/12/31 10:11:21;;;;;;;5.80;2.90;;;;;;;12.86;93.94;101682.69;5007442;28;20062;-47
2021/12/31 10:14:00;;;;;;;7.72;3.35;;;;;;;12.93;95.23;101673.16;5007561;28;20404;-50
2021/12/31 10:16:30;;;;;;;6.97;3.08;;;;;;;13.02;97.67;101675.44;4997751;28;20501;-50
2021/12/31 10:19:11;;;;;;;10.50;4.43;;;;;;;13.05;98.41;101685.84;4996277;28;20464;-47
2021/12/31 10:21:41;;;;;;;13.15;4.20;;;;;;;12.96;95.17;101690.97;5000139;28;20050;-50
2021/12/31 10:24:24;;;;;;;5.30;2.80;;;;;;;12.84;94.24;101680.22;4999525;28;20056;-48
2021/12/31 10:26:56;;;;;;;11.00;4.60;;;;;;;12.89;98.04;101654.81;5005272;28;20073;-51
2021/12/31 10:29:25;;;;;;;10.95;3.75;;;;;;;12.91;98.68;101658.13;4996202;28;20042;-48
2021/12/31 10:31:53;;;;;;;7.05;3.50;;;;;;;12.84;95.06;101657.50;5005501;28;20397;-50
2021/12/31 10:34:36;;;;;;;6.22;2.80;;;;;;;12.73;94.04;101646.50;5001276;28;20054;-49
2021/12/31 10:37:14;;;;;;;7.18;3.17;;;;;;;12.71;93.96;101643.22;4995913;28;20054;-52
2021/12/31 10:39:43;;;;;;;8.48;3.38;;;;;;;12.75;93.46;101652.53;4998300;28;20053;-49
2021/12/31 10:42:14;;;;;;;7.43;3.22;;;;;;;12.83;94.10;101644.94;4999355;28;20503;-52
2021/12/31 10:44:50;;;;;;;10.25;3.83;;;;;;;12.91;95.98;101658.94;4997284;28;20041;-50
2021/12/31 10:47:31;;;;;;;8.80;3.67;;;;;;;12.92;95.33;101651.56;4994589;28;20204;-49
2021/12/31 10:50:01;;;;;;;10.88;4.00;;;;;;;13.15;99.99;101659.34;5007888;28;20559;-49
2021/12/31 10:52:41;;;;;;;11.45;4.28;;;;;;;13.08;96.09;101656.03;4999491;28;20042;-49
2021/12/31 10:55:20;;;;;;;8.65;3.42;;;;;;;13.17;96.94;101662.66;4996583;28;20054;-50
2021/12/31 10:57:50;;;;;;;6.38;2.88;;;;;;;12.99;92.87;101666.66;5006121;28;20042;-50
2021/12/31 11:00:19;;;;;;;8.35;3.55;;;;;;;12.95;93.86;101681.13;5011433;28;20045;-50
2021/12/31 11:02:47;;;;;;;8.05;3.50;;;;;;;12.90;94.75;101668.25;4994613;28;20445;-49
2021/12/31 11:05:18;;;;;;;6.68;3.00;;;;;;;12.87;93.80;101678.84;5006394;28;20043;-51
2021/12/31 11:07:47;;;;;;;10.23;3.22;;;;;;;12.88;95.07;101658.66;4993756;28;20485;-50
2021/12/31 11:10:34;;;;;;;8.07;3.40;;;;;;;12.92;93.91;101655.13;4995476;28;20125;-50
2021/12/31 11:13:20;;;;;;;7.20;3.20;;;;;;;12.94;95.00;101654.84;4995037;28;20862;-52
2021/12/31 11:15:52;;;;;;;10.05;3.65;;;;;;;12.98;94.76;101648.59;5008566;28;20066;-52
2021/12/31 11:18:23;;;;;;;7.60;3.00;;;;;;;12.98;93.95;101634.09;4995200;28;20042;-48
2021/12/31 11:21:12;;;;;;;6.28;2.70;;;;;;;12.99;93.98;101627.53;4993606;28;20042;-52
2021/12/31 11:23:42;;;;;;;6.18;2.97;;;;;;;13.00;92.69;101621.78;4995872;28;20538;-46
2021/12/31 11:26:13;;;;;;;9.55;3.72;;;;;;;12.99;93.48;101628.38;4996132;28;20035;-50
2021/12/31 11:28:46;;;;;;;10.75;4.82;;;;;;;13.04;93.39;101613.06;4994994;28;20050;-49
2021/12/31 11:31:18;;;;;;;13.60;5.97;;;;;;;13.07;93.46;101602.41;4998274;28;20093;-49
2021/12/31 11:34:10;;;;;;;14.27;8.05;;;;;;;13.09;93.73;101583.81;4999040;28;20042;-49
2021/12/31 11:36:44;;;;;;;25.75;14.27;;;;;;;13.15;94.08;101568.25;5014196;28;20046;-50